Terminal Aerodrome Forecast
Issued by NWS

Home | Current Version | Previous Version | Text Only | Print | Product List | Glossary On
Versions: 1 2 3 4 5 6 7 8 9 10 11 12 13 14
000
FTAK31 PAJN 030520
TAFASI
TAF
PASI 030520Z 0306/0406 32013KT P6SM VCSH SCT025 BKN070
     FM030900 34005KT P6SM VCSH SCT015 BKN025 OVC050
     FM031700 28008KT P6SM SCT025 BKN070
     FM040000 27012KT P6SM BKN100=

USA.gov is the U.S. government's official web portal to all federal, state and local government web resources and services.